x

Columbia River Bar - 20nm West Of Columbia River Mouth (46029) Wave Buoy

4:50pm - Sat 28th Mar 2015 All times are PDT. -7 hours from GMT.

  • Sig Wave height 8.2ft
  • Swell Direction
  • Peak Period 11s
  • Average Period 7s
  • Wind
    16mph, 20mph gusts
  • Sea Temp 54°f
  • Air Temp 54°f
  • Sea Pressure 1028.1mb
  • Columbia River Bar - 20nm West Of Columbia River Mouth
  • Columbia River Bar - 20nm West Of Columbia River Mouth

More Historic Weather Station data

Upgrade to MSW Pro to gain access to the past 30 days of data for over 8000 Wavebouys and Weather Stations around the globe.

Join Pro

Comparision Forecast

View Surf forecast
   
Sat 03/28 4:50pm 8ft 11s 7s 16 20 mph 1028.1mb 54f 54f
3:50pm 9ft 11s 7s 16 20 mph 1028mb 54f 54f
2:50pm 8.5ft 10s 7s 18 20 mph 1028.3mb 54f 54f
1:50pm 9ft 11s 7s 18 20 mph 1028.8mb 54f 54f
12:50pm 9ft 11s 7s 16 20 mph 1028.1mb 54f 54f
11:50am 9ft 12s 7s 13 16 mph 1027.9mb 54f 53f
10:50am 8.5ft 11s 7s 13 16 mph 1027.8mb 54f 53f
9:50am 8ft 11s 7s 11 16 mph 1027.3mb 54f 53f
8:50am 9ft 12s 7s 16 20 mph 1026.3mb 54f 52f
7:50am 9ft 12s 7s 16 20 mph 1026.1mb 54f 53f
6:50am 9ft 12s 7s 16 20 mph 1025.1mb 54f 53f
5:50am 8ft 12s 7s 16 18 mph 1024.1mb 54f 53f
4:50am 9ft 12s 7s 16 20 mph 1023.3mb 54f 53f
3:50am 9ft 13s 7s 18 22 mph 1023mb 54f 53f
2:50am 9ft 13s 7s 20 25 mph 1022.6mb 54f 53f
1:50am 9ft 11s 7s 20 25 mph 1021.9mb 54f 54f
12:50am 9ft 12s 7s 20 25 mph 1021.4mb 54f 53f
Fri 03/27 11:50pm 8.5ft 13s 7s 20 25 mph 1020.8mb 54f 53f
10:50pm 8ft 12s 7s 11 16 mph 1020.6mb 54f 52f
9:50pm 8.5ft 13s 7s 20 22 mph 1019.4mb 54f 53f
8:50pm 8.5ft 12s 7s 18 22 mph 1018.3mb 54f 54f
7:50pm 9ft 12s 7s 18 22 mph 1016.9mb 54f 54f
6:50pm 8ft 12s 6s 18 20 mph 1016.7mb 54f 53f
5:50pm 8.5ft 13s 7s 22 25 mph 1016mb 54f 53f
4:50pm 8.5ft 13s 7s 22 29 mph 1015.8mb 54f 54f
3:50pm 8.5ft 12s 7s 25 29 mph 1016.3mb 54f 54f
2:50pm 9ft 13s 8s 20 27 mph 1016.8mb 54f 54f
1:50pm 9ft 13s 8s 20 27 mph 1017.5mb 54f 54f
12:50pm 8ft 12s 8s 18 22 mph 1018mb 54f 54f
11:50am 10ft 13s 10s 18 20 mph 1017.9mb 54f 54f
10:50am 8ft 14s 10s 13 18 mph 1018.1mb 54f 53f
9:50am 7.5ft 12s 10s 11 13 mph 1018.1mb 54f 51f
8:50am 7ft 14s 9s 9 11 mph 1017.9mb 54f 51f
7:50am 8ft 11s 10s 7 11 mph 1017.3mb 54f 50f
6:50am 8ft 11s 9s 4 7 mph 1017mb 54f 51f
5:50am 7ft 11s 9s 9 11 mph 1016.8mb 54f 52f
4:50am 7ft 11s 9s 9 11 mph 1016.9mb 54f 53f
3:50am 6.5ft 11s 8s 9 11 mph 1017.6mb 54f 53f
2:50am 7.5ft 11s 9s 4 7 mph 1018.1mb 54f 54f
1:50am 7.5ft 11s 9s 7 9 mph 1018.5mb 55f 54f
12:50am 7ft 11s 9s 7 9 mph 1019.5mb 55f 54f
Thu 03/26 11:50pm 7ft 11s 9s 9 11 mph 1020.1mb 55f 54f
10:50pm 7ft 11s 9s 9
mph
1020.6mb 55f 54f
9:50pm 6.5ft 11s 9s 7 9 mph 1021mb 55f 54f
8:50pm 6.5ft 11s 9s 7
mph
1020.7mb 55f 55f
7:50pm 7.5ft 11s 9s 7
mph
1020.6mb 56f 55f
6:50pm 7ft 11s 9s 7
mph
1021mb 56f 56f
5:50pm 7ft 11s 8s 7 9 mph 1021.4mb 56f 56f
4:50pm 7ft 11s 9s 4 7 mph 1022mb 56f 55f
3:50pm 6.5ft 11s 8s 4
mph
1022.8mb 57f 55f
2:50pm 6.5ft 11s 8s 2 4 mph 1023.4mb 56f 54f
1:50pm 7ft 11s 8s 4
mph
1024.2mb 55f 53f
12:50pm 6.5ft 11s 8s 4 7 mph 1024.5mb 55f 52f
11:50am 8ft 11s 8s 7 9 mph 1024.8mb 54f 52f
10:50am 7ft 11s 8s 4 7 mph 1025.1mb 54f 54f
9:50am 6.5ft 11s 8s 4 7 mph 1024.9mb 54f 54f
8:50am 7ft 11s 8s 4 7 mph 1024.7mb 54f 54f
7:50am 7ft 11s 8s 4
mph
1024.5mb 54f 53f
6:50am 6ft 11s 7s 4 9 mph 1024.4mb 54f 53f
5:50am 8ft 11s 8s 7 11 mph 1024.4mb 54f 53f
4:50am 8ft 11s 8s 4 7 mph 1025.1mb 54f 54f
3:50am 8.5ft 11s 8s 4 7 mph 1025.3mb 54f 54f
2:50am 8ft 11s 7s 7 9 mph 1025.5mb 54f 54f
1:50am 8ft 11s 7s 9 11 mph 1025.5mb 54f 53f
12:50am 8ft 11s 8s 13 16 mph 1025.7mb 54f 54f
Wed 03/25 11:50pm 8ft 11s 7s 16 18 mph 1025.8mb 54f 54f
10:50pm 8ft 11s 7s 16 18 mph 1026mb 54f 54f
9:50pm 8ft 11s 7s 16 18 mph 1026.1mb 54f 54f
8:50pm 8ft 11s 7s 16 20 mph 1025.7mb 54f 54f
7:50pm 8ft 11s 6s 16 18 mph 1025.6mb 54f 54f
6:50pm 7.5ft 11s 6s 18 20 mph 1025.3mb 54f 54f
5:50pm 8ft 10s 6s 20 25 mph 1025mb 54f 54f
4:50pm 8ft 11s 6s 20 25 mph 1024.9mb 54f 54f
3:50pm 8ft 11s 6s 22 27 mph 1024.7mb 54f 54f
2:50pm 8ft 11s 6s 22 27 mph 1024.4mb 54f 54f
1:50pm 8ft 7s 6s 25 29 mph 1024mb 54f 55f
12:50pm 8ft 7s 6s 25 29 mph 1023.6mb 54f 54f
11:50am 9ft 11s 6s 25 29 mph 1023.4mb 54f 54f
10:50am 8ft 11s 6s 25 29 mph 1022.8mb 54f 54f
9:50am 8ft 6s 6s 25 29 mph 1022.3mb 54f 55f
8:50am 7.5ft 10s 6s 25 29 mph 1021.7mb 54f 54f
7:50am 7ft 11s 6s 22 27 mph 1021.6mb 54f 54f
6:50am 7ft 7s 6s 22 27 mph 1021.6mb 54f 54f
5:50am 8ft 11s 6s 20 29 mph 1021.2mb 54f 54f
4:50am 7.5ft 11s 6s 22 27 mph 1021mb 54f 55f
3:50am 8ft 11s 6s 22 25 mph 1020.9mb 54f 54f
2:50am 8ft 11s 6s 22 27 mph 1020.8mb 54f 54f
1:50am 8ft 11s 6s 22 25 mph 1020.9mb 54f 54f